sensor_id;sensor_type;location;lat;lon;timestamp;P1;durP1;ratioP1;P2;durP2;ratioP2
50281;SDS011;36176;51.506;10.272;2022-08-19T00:01:27;20.77;;;18.67;;
50281;SDS011;36176;51.506;10.272;2022-08-19T00:04:04;17.30;;;15.57;;
50281;SDS011;36176;51.506;10.272;2022-08-19T00:06:34;20.25;;;18.35;;
50281;SDS011;36176;51.506;10.272;2022-08-19T00:09:03;17.60;;;15.93;;
50281;SDS011;36176;51.506;10.272;2022-08-19T00:11:32;19.33;;;17.50;;
50281;SDS011;36176;51.506;10.272;2022-08-19T00:14:01;20.45;;;18.63;;
50281;SDS011;36176;51.506;10.272;2022-08-19T00:16:29;19.73;;;17.88;;
50281;SDS011;36176;51.506;10.272;2022-08-19T00:18:56;19.95;;;16.13;;
50281;SDS011;36176;51.506;10.272;2022-08-19T00:21:24;23.50;;;21.27;;
50281;SDS011;36176;51.506;10.272;2022-08-19T00:24:16;16.90;;;15.05;;
50281;SDS011;36176;51.506;10.272;2022-08-19T00:26:43;17.80;;;15.90;;
50281;SDS011;36176;51.506;10.272;2022-08-19T00:29:13;16.73;;;15.13;;
50281;SDS011;36176;51.506;10.272;2022-08-19T00:31:43;19.70;;;17.52;;
50281;SDS011;36176;51.506;10.272;2022-08-19T00:34:12;18.67;;;16.70;;
50281;SDS011;36176;51.506;10.272;2022-08-19T00:36:42;21.90;;;19.80;;
50281;SDS011;36176;51.506;10.272;2022-08-19T00:39:11;18.65;;;16.83;;
50281;SDS011;36176;51.506;10.272;2022-08-19T00:41:39;16.83;;;15.13;;
50281;SDS011;36176;51.506;10.272;2022-08-19T00:46:38;18.77;;;16.17;;
50281;SDS011;36176;51.506;10.272;2022-08-19T00:49:09;16.35;;;14.50;;
50281;SDS011;36176;51.506;10.272;2022-08-19T00:51:42;17.27;;;15.40;;
50281;SDS011;36176;51.506;10.272;2022-08-19T00:54:12;17.38;;;14.70;;
50281;SDS011;36176;51.506;10.272;2022-08-19T00:56:43;18.70;;;17.00;;
50281;SDS011;36176;51.506;10.272;2022-08-19T00:59:11;16.48;;;14.82;;
50281;SDS011;36176;51.506;10.272;2022-08-19T01:02:03;13.40;;;11.80;;
50281;SDS011;36176;51.506;10.272;2022-08-19T01:04:34;14.75;;;13.25;;
50281;SDS011;36176;51.506;10.272;2022-08-19T01:07:01;16.27;;;14.77;;
50281;SDS011;36176;51.506;10.272;2022-08-19T01:09:37;16.63;;;14.93;;
50281;SDS011;36176;51.506;10.272;2022-08-19T01:12:04;14.85;;;13.30;;
50281;SDS011;36176;51.506;10.272;2022-08-19T01:14:32;18.10;;;16.38;;
50281;SDS011;36176;51.506;10.272;2022-08-19T01:17:02;17.67;;;16.23;;
50281;SDS011;36176;51.506;10.272;2022-08-19T01:19:33;15.43;;;13.77;;
50281;SDS011;36176;51.506;10.272;2022-08-19T01:24:46;15.52;;;13.95;;
50281;SDS011;36176;51.506;10.272;2022-08-19T01:27:16;14.25;;;12.95;;
50281;SDS011;36176;51.506;10.272;2022-08-19T01:29:44;13.70;;;12.07;;
50281;SDS011;36176;51.506;10.272;2022-08-19T01:32:13;15.05;;;13.68;;
50281;SDS011;36176;51.506;10.272;2022-08-19T01:35:00;14.18;;;12.23;;
50281;SDS011;36176;51.506;10.272;2022-08-19T01:37:29;12.85;;;11.20;;
50281;SDS011;36176;51.506;10.272;2022-08-19T01:39:58;11.18;;;10.07;;
50281;SDS011;36176;51.506;10.272;2022-08-19T01:42:25;12.65;;;11.13;;
50281;SDS011;36176;51.506;10.272;2022-08-19T01:44:56;11.70;;;10.52;;
50281;SDS011;36176;51.506;10.272;2022-08-19T01:47:23;12.23;;;9.82;;
50281;SDS011;36176;51.506;10.272;2022-08-19T01:49:51;15.38;;;14.05;;
50281;SDS011;36176;51.506;10.272;2022-08-19T01:52:18;12.35;;;11.15;;
50281;SDS011;36176;51.506;10.272;2022-08-19T01:54:46;11.15;;;10.05;;
50281;SDS011;36176;51.506;10.272;2022-08-19T01:57:13;14.30;;;11.43;;
50281;SDS011;36176;51.506;10.272;2022-08-19T01:59:41;12.05;;;10.75;;
50281;SDS011;36176;51.506;10.272;2022-08-19T02:02:11;12.70;;;11.60;;
50281;SDS011;36176;51.506;10.272;2022-08-19T02:04:41;12.35;;;11.13;;
50281;SDS011;36176;51.506;10.272;2022-08-19T02:07:08;12.73;;;11.52;;
50281;SDS011;36176;51.506;10.272;2022-08-19T02:09:42;12.07;;;10.90;;
50281;SDS011;36176;51.506;10.272;2022-08-19T02:12:09;12.65;;;11.00;;
50281;SDS011;36176;51.506;10.272;2022-08-19T02:14:37;12.27;;;11.15;;
50281;SDS011;36176;51.506;10.272;2022-08-19T02:17:11;13.02;;;10.98;;
50281;SDS011;36176;51.506;10.272;2022-08-19T02:20:02;12.57;;;11.48;;
50281;SDS011;36176;51.506;10.272;2022-08-19T02:22:39;11.15;;;9.20;;
50281;SDS011;36176;51.506;10.272;2022-08-19T02:25:25;13.30;;;9.98;;
50281;SDS011;36176;51.506;10.272;2022-08-19T02:27:54;11.05;;;10.10;;
50281;SDS011;36176;51.506;10.272;2022-08-19T02:30:37;11.88;;;10.77;;
50281;SDS011;36176;51.506;10.272;2022-08-19T02:33:05;12.13;;;9.85;;
50281;SDS011;36176;51.506;10.272;2022-08-19T02:35:34;10.93;;;9.57;;
50281;SDS011;36176;51.506;10.272;2022-08-19T02:38:05;11.98;;;10.77;;
50281;SDS011;36176;51.506;10.272;2022-08-19T02:41:15;12.25;;;10.52;;
50281;SDS011;36176;51.506;10.272;2022-08-19T03:01:04;10.68;;;9.38;;
50281;SDS011;36176;51.506;10.272;2022-08-19T03:03:46;10.65;;;9.30;;
50281;SDS011;36176;51.506;10.272;2022-08-19T03:23:04;9.30;;;8.25;;
50281;SDS011;36176;51.506;10.272;2022-08-19T03:25:52;9.05;;;8.15;;
50281;SDS011;36176;51.506;10.272;2022-08-19T03:28:43;8.95;;;7.90;;
50281;SDS011;36176;51.506;10.272;2022-08-19T03:31:34;12.48;;;11.32;;
50281;SDS011;36176;51.506;10.272;2022-08-19T03:59:12;12.38;;;11.27;;
50281;SDS011;36176;51.506;10.272;2022-08-19T04:02:20;9.68;;;8.65;;
50281;SDS011;36176;51.506;10.272;2022-08-19T04:31:50;11.02;;;9.00;;
50281;SDS011;36176;51.506;10.272;2022-08-19T04:37:29;8.85;;;7.72;;
50281;SDS011;36176;51.506;10.272;2022-08-19T04:40:05;9.77;;;8.85;;
50281;SDS011;36176;51.506;10.272;2022-08-19T04:42:51;9.18;;;8.27;;
50281;SDS011;36176;51.506;10.272;2022-08-19T04:45:20;10.10;;;9.00;;
50281;SDS011;36176;51.506;10.272;2022-08-19T04:47:49;8.48;;;6.82;;
50281;SDS011;36176;51.506;10.272;2022-08-19T04:50:36;8.50;;;7.65;;
50281;SDS011;36176;51.506;10.272;2022-08-19T04:53:07;8.55;;;7.65;;
50281;SDS011;36176;51.506;10.272;2022-08-19T04:55:38;8.27;;;7.40;;
50281;SDS011;36176;51.506;10.272;2022-08-19T04:58:07;9.50;;;8.57;;
50281;SDS011;36176;51.506;10.272;2022-08-19T05:00:36;9.48;;;8.50;;
50281;SDS011;36176;51.506;10.272;2022-08-19T05:03:05;8.50;;;7.60;;
50281;SDS011;36176;51.506;10.272;2022-08-19T05:05:33;8.35;;;6.70;;
50281;SDS011;36176;51.506;10.272;2022-08-19T05:08:15;10.52;;;7.60;;
50281;SDS011;36176;51.506;10.272;2022-08-19T05:10:57;6.95;;;6.35;;
50281;SDS011;36176;51.506;10.272;2022-08-19T05:13:35;7.30;;;6.68;;
50281;SDS011;36176;51.506;10.272;2022-08-19T05:16:02;7.20;;;6.50;;
50281;SDS011;36176;51.506;10.272;2022-08-19T05:18:29;7.22;;;6.53;;
50281;SDS011;36176;51.506;10.272;2022-08-19T05:21:16;7.20;;;6.07;;
50281;SDS011;36176;51.506;10.272;2022-08-19T05:24:03;7.50;;;6.65;;
50281;SDS011;36176;51.506;10.272;2022-08-19T05:26:39;7.60;;;6.90;;
50281;SDS011;36176;51.506;10.272;2022-08-19T05:29:08;7.55;;;6.85;;
50281;SDS011;36176;51.506;10.272;2022-08-19T05:31:37;8.00;;;7.28;;
50281;SDS011;36176;51.506;10.272;2022-08-19T05:34:07;9.68;;;7.35;;
50281;SDS011;36176;51.506;10.272;2022-08-19T05:36:46;8.65;;;7.70;;
50281;SDS011;36176;51.506;10.272;2022-08-19T05:39:19;7.55;;;6.45;;
50281;SDS011;36176;51.506;10.272;2022-08-19T05:41:48;7.20;;;6.57;;
50281;SDS011;36176;51.506;10.272;2022-08-19T05:44:17;9.60;;;8.15;;
50281;SDS011;36176;51.506;10.272;2022-08-19T05:46:44;9.25;;;8.35;;
50281;SDS011;36176;51.506;10.272;2022-08-19T05:49:15;7.72;;;6.85;;
50281;SDS011;36176;51.506;10.272;2022-08-19T05:51:42;6.53;;;5.93;;
50281;SDS011;36176;51.506;10.272;2022-08-19T05:54:09;9.27;;;5.93;;
50281;SDS011;36176;51.506;10.272;2022-08-19T05:56:40;8.60;;;7.85;;
50281;SDS011;36176;51.506;10.272;2022-08-19T05:59:09;8.70;;;6.70;;
50281;SDS011;36176;51.506;10.272;2022-08-19T06:01:39;7.68;;;6.93;;
50281;SDS011;36176;51.506;10.272;2022-08-19T06:04:08;7.85;;;6.72;;
50281;SDS011;36176;51.506;10.272;2022-08-19T06:06:35;7.05;;;6.35;;
50281;SDS011;36176;51.506;10.272;2022-08-19T06:09:04;6.28;;;5.30;;
50281;SDS011;36176;51.506;10.272;2022-08-19T06:14:11;6.25;;;5.60;;
50281;SDS011;36176;51.506;10.272;2022-08-19T06:16:53;5.97;;;5.32;;
50281;SDS011;36176;51.506;10.272;2022-08-19T06:19:21;6.97;;;6.28;;
50281;SDS011;36176;51.506;10.272;2022-08-19T06:21:51;7.97;;;5.50;;
50281;SDS011;36176;51.506;10.272;2022-08-19T06:24:23;7.18;;;5.50;;
50281;SDS011;36176;51.506;10.272;2022-08-19T06:26:52;6.20;;;5.60;;
50281;SDS011;36176;51.506;10.272;2022-08-19T06:29:27;7.75;;;7.05;;
50281;SDS011;36176;51.506;10.272;2022-08-19T06:31:56;7.38;;;6.68;;
50281;SDS011;36176;51.506;10.272;2022-08-19T06:34:26;5.82;;;5.20;;
50281;SDS011;36176;51.506;10.272;2022-08-19T06:36:55;7.28;;;6.60;;
50281;SDS011;36176;51.506;10.272;2022-08-19T06:39:25;5.07;;;4.55;;
50281;SDS011;36176;51.506;10.272;2022-08-19T06:41:55;5.63;;;5.13;;
50281;SDS011;36176;51.506;10.272;2022-08-19T06:44:25;6.28;;;5.65;;
50281;SDS011;36176;51.506;10.272;2022-08-19T06:46:56;5.95;;;5.38;;
50281;SDS011;36176;51.506;10.272;2022-08-19T06:49:23;7.15;;;6.45;;
50281;SDS011;36176;51.506;10.272;2022-08-19T06:51:54;5.18;;;4.68;;
50281;SDS011;36176;51.506;10.272;2022-08-19T06:54:23;5.78;;;5.28;;
50281;SDS011;36176;51.506;10.272;2022-08-19T06:57:00;6.22;;;5.63;;
50281;SDS011;36176;51.506;10.272;2022-08-19T06:59:31;4.75;;;4.28;;
50281;SDS011;36176;51.506;10.272;2022-08-19T07:02:02;5.88;;;4.75;;
50281;SDS011;36176;51.506;10.272;2022-08-19T07:04:34;5.20;;;4.70;;
50281;SDS011;36176;51.506;10.272;2022-08-19T07:07:10;4.70;;;4.20;;
50281;SDS011;36176;51.506;10.272;2022-08-19T07:09:48;4.53;;;4.00;;
50281;SDS011;36176;51.506;10.272;2022-08-19T07:12:27;6.25;;;5.65;;
50281;SDS011;36176;51.506;10.272;2022-08-19T07:14:58;5.68;;;4.13;;
50281;SDS011;36176;51.506;10.272;2022-08-19T07:17:28;6.15;;;5.53;;
50281;SDS011;36176;51.506;10.272;2022-08-19T07:19:58;5.28;;;4.22;;
50281;SDS011;36176;51.506;10.272;2022-08-19T07:22:33;5.32;;;4.32;;
50281;SDS011;36176;51.506;10.272;2022-08-19T07:25:02;6.13;;;4.05;;
50281;SDS011;36176;51.506;10.272;2022-08-19T07:27:30;5.93;;;4.47;;
50281;SDS011;36176;51.506;10.272;2022-08-19T07:29:59;4.55;;;3.50;;
50281;SDS011;36176;51.506;10.272;2022-08-19T07:32:32;5.40;;;4.50;;
50281;SDS011;36176;51.506;10.272;2022-08-19T07:35:00;5.47;;;4.97;;
50281;SDS011;36176;51.506;10.272;2022-08-19T07:37:27;6.53;;;5.10;;
50281;SDS011;36176;51.506;10.272;2022-08-19T07:40:06;5.50;;;5.10;;
50281;SDS011;36176;51.506;10.272;2022-08-19T07:42:34;4.20;;;3.80;;
50281;SDS011;36176;51.506;10.272;2022-08-19T07:45:01;4.50;;;4.00;;
50281;SDS011;36176;51.506;10.272;2022-08-19T07:47:30;4.93;;;4.47;;
50281;SDS011;36176;51.506;10.272;2022-08-19T07:50:16;4.22;;;3.90;;
50281;SDS011;36176;51.506;10.272;2022-08-19T07:52:47;4.03;;;3.47;;
50281;SDS011;36176;51.506;10.272;2022-08-19T07:55:18;4.85;;;3.78;;
50281;SDS011;36176;51.506;10.272;2022-08-19T07:58:07;6.75;;;5.65;;
50281;SDS011;36176;51.506;10.272;2022-08-19T08:00:35;4.68;;;3.88;;
50281;SDS011;36176;51.506;10.272;2022-08-19T08:03:03;4.60;;;4.20;;
50281;SDS011;36176;51.506;10.272;2022-08-19T08:05:30;6.28;;;4.35;;
50281;SDS011;36176;51.506;10.272;2022-08-19T08:08:35;4.10;;;3.80;;
50281;SDS011;36176;51.506;10.272;2022-08-19T08:11:21;4.47;;;4.13;;
50281;SDS011;36176;51.506;10.272;2022-08-19T08:14:08;3.67;;;3.38;;
50281;SDS011;36176;51.506;10.272;2022-08-19T08:17:04;14.25;;;12.82;;
50281;SDS011;36176;51.506;10.272;2022-08-19T08:19:36;4.55;;;2.78;;
50281;SDS011;36176;51.506;10.272;2022-08-19T08:22:04;4.00;;;3.70;;
50281;SDS011;36176;51.506;10.272;2022-08-19T08:24:34;3.53;;;3.22;;
50281;SDS011;36176;51.506;10.272;2022-08-19T08:27:02;3.17;;;2.92;;
50281;SDS011;36176;51.506;10.272;2022-08-19T08:29:37;3.35;;;2.67;;
50281;SDS011;36176;51.506;10.272;2022-08-19T08:32:07;2.80;;;2.58;;
50281;SDS011;36176;51.506;10.272;2022-08-19T08:34:40;3.83;;;3.53;;
50281;SDS011;36176;51.506;10.272;2022-08-19T08:37:11;4.00;;;3.70;;
50281;SDS011;36176;51.506;10.272;2022-08-19T08:39:53;4.30;;;3.90;;
50281;SDS011;36176;51.506;10.272;2022-08-19T08:42:44;5.15;;;3.78;;
50281;SDS011;36176;51.506;10.272;2022-08-19T08:45:30;3.30;;;3.00;;
50281;SDS011;36176;51.506;10.272;2022-08-19T08:48:19;6.90;;;6.20;;
50281;SDS011;36176;51.506;10.272;2022-08-19T08:51:08;4.03;;;3.20;;
50281;SDS011;36176;51.506;10.272;2022-08-19T08:53:46;3.22;;;2.92;;
50281;SDS011;36176;51.506;10.272;2022-08-19T08:56:22;3.90;;;3.60;;
50281;SDS011;36176;51.506;10.272;2022-08-19T08:58:59;3.58;;;3.38;;
50281;SDS011;36176;51.506;10.272;2022-08-19T09:01:34;4.57;;;4.15;;
50281;SDS011;36176;51.506;10.272;2022-08-19T09:04:04;3.08;;;2.70;;
50281;SDS011;36176;51.506;10.272;2022-08-19T09:06:40;3.97;;;3.67;;
50281;SDS011;36176;51.506;10.272;2022-08-19T09:09:20;2.75;;;2.40;;
50281;SDS011;36176;51.506;10.272;2022-08-19T09:12:05;3.95;;;3.65;;
50281;SDS011;36176;51.506;10.272;2022-08-19T09:15:08;2.60;;;2.42;;
50281;SDS011;36176;51.506;10.272;2022-08-19T09:17:38;3.20;;;2.80;;
50281;SDS011;36176;51.506;10.272;2022-08-19T09:22:36;3.35;;;3.00;;
50281;SDS011;36176;51.506;10.272;2022-08-19T09:25:06;4.35;;;3.03;;
50281;SDS011;36176;51.506;10.272;2022-08-19T09:27:35;3.30;;;2.90;;
50281;SDS011;36176;51.506;10.272;2022-08-19T09:30:13;4.68;;;2.40;;
50281;SDS011;36176;51.506;10.272;2022-08-19T09:32:48;4.78;;;4.30;;
50281;SDS011;36176;51.506;10.272;2022-08-19T09:35:23;3.60;;;2.90;;
50281;SDS011;36176;51.506;10.272;2022-08-19T09:38:12;2.92;;;2.58;;
50281;SDS011;36176;51.506;10.272;2022-08-19T09:40:39;8.07;;;4.05;;
50281;SDS011;36176;51.506;10.272;2022-08-19T09:43:07;5.57;;;2.83;;
50281;SDS011;36176;51.506;10.272;2022-08-19T09:45:39;4.88;;;2.88;;
50281;SDS011;36176;51.506;10.272;2022-08-19T09:48:09;3.60;;;2.45;;
50281;SDS011;36176;51.506;10.272;2022-08-19T09:50:37;6.68;;;4.40;;
50281;SDS011;36176;51.506;10.272;2022-08-19T09:53:18;4.18;;;2.60;;
50281;SDS011;36176;51.506;10.272;2022-08-19T09:55:46;7.20;;;2.58;;
50281;SDS011;36176;51.506;10.272;2022-08-19T09:58:13;3.72;;;2.58;;
50281;SDS011;36176;51.506;10.272;2022-08-19T10:00:40;4.78;;;2.70;;
50281;SDS011;36176;51.506;10.272;2022-08-19T10:03:07;6.45;;;2.80;;
50281;SDS011;36176;51.506;10.272;2022-08-19T10:05:34;5.00;;;2.30;;
50281;SDS011;36176;51.506;10.272;2022-08-19T10:08:39;3.70;;;2.63;;
50281;SDS011;36176;51.506;10.272;2022-08-19T10:11:16;2.60;;;2.20;;
50281;SDS011;36176;51.506;10.272;2022-08-19T10:14:09;5.32;;;2.58;;
50281;SDS011;36176;51.506;10.272;2022-08-19T10:16:37;4.82;;;4.13;;
50281;SDS011;36176;51.506;10.272;2022-08-19T10:19:05;2.78;;;2.35;;
50281;SDS011;36176;51.506;10.272;2022-08-19T10:21:33;2.45;;;2.25;;
50281;SDS011;36176;51.506;10.272;2022-08-19T10:24:01;3.03;;;2.83;;
50281;SDS011;36176;51.506;10.272;2022-08-19T10:26:39;3.28;;;2.10;;
50281;SDS011;36176;51.506;10.272;2022-08-19T10:29:13;4.70;;;2.40;;
50281;SDS011;36176;51.506;10.272;2022-08-19T10:32:17;4.35;;;3.15;;
50281;SDS011;36176;51.506;10.272;2022-08-19T10:34:59;4.57;;;4.20;;
50281;SDS011;36176;51.506;10.272;2022-08-19T10:37:27;3.90;;;3.60;;
50281;SDS011;36176;51.506;10.272;2022-08-19T10:39:58;3.40;;;3.15;;
50281;SDS011;36176;51.506;10.272;2022-08-19T10:42:25;3.35;;;2.47;;
50281;SDS011;36176;51.506;10.272;2022-08-19T10:44:52;3.95;;;3.30;;
50281;SDS011;36176;51.506;10.272;2022-08-19T10:47:19;3.55;;;2.28;;
50281;SDS011;36176;51.506;10.272;2022-08-19T10:49:52;2.92;;;2.20;;
50281;SDS011;36176;51.506;10.272;2022-08-19T10:52:40;3.40;;;2.45;;
50281;SDS011;36176;51.506;10.272;2022-08-19T10:55:19;2.47;;;2.28;;
50281;SDS011;36176;51.506;10.272;2022-08-19T10:58:17;2.88;;;2.00;;
50281;SDS011;36176;51.506;10.272;2022-08-19T11:00:57;4.75;;;2.60;;
50281;SDS011;36176;51.506;10.272;2022-08-19T11:03:26;4.43;;;2.10;;
50281;SDS011;36176;51.506;10.272;2022-08-19T11:05:58;3.55;;;2.30;;
50281;SDS011;36176;51.506;10.272;2022-08-19T11:08:27;4.35;;;2.45;;
50281;SDS011;36176;51.506;10.272;2022-08-19T11:10:54;2.25;;;2.00;;
50281;SDS011;36176;51.506;10.272;2022-08-19T11:13:24;2.00;;;1.80;;
50281;SDS011;36176;51.506;10.272;2022-08-19T11:16:03;3.42;;;1.85;;
50281;SDS011;36176;51.506;10.272;2022-08-19T11:18:38;2.60;;;2.28;;
50281;SDS011;36176;51.506;10.272;2022-08-19T11:21:08;5.28;;;2.50;;
50281;SDS011;36176;51.506;10.272;2022-08-19T11:23:41;4.18;;;1.88;;
50281;SDS011;36176;51.506;10.272;2022-08-19T11:26:09;2.38;;;2.17;;
50281;SDS011;36176;51.506;10.272;2022-08-19T11:28:36;2.70;;;1.98;;
50281;SDS011;36176;51.506;10.272;2022-08-19T11:31:04;4.68;;;2.13;;
50281;SDS011;36176;51.506;10.272;2022-08-19T11:33:36;4.05;;;2.10;;
50281;SDS011;36176;51.506;10.272;2022-08-19T11:36:04;4.53;;;1.90;;
50281;SDS011;36176;51.506;10.272;2022-08-19T11:38:31;2.17;;;1.80;;
50281;SDS011;36176;51.506;10.272;2022-08-19T11:41:00;3.42;;;1.95;;
50281;SDS011;36176;51.506;10.272;2022-08-19T11:43:29;2.78;;;2.58;;
50281;SDS011;36176;51.506;10.272;2022-08-19T11:46:04;2.72;;;2.53;;
50281;SDS011;36176;51.506;10.272;2022-08-19T11:48:57;2.70;;;1.80;;
50281;SDS011;36176;51.506;10.272;2022-08-19T11:51:27;2.00;;;1.80;;
50281;SDS011;36176;51.506;10.272;2022-08-19T11:53:55;3.83;;;1.80;;
50281;SDS011;36176;51.506;10.272;2022-08-19T11:56:25;3.45;;;2.30;;
50281;SDS011;36176;51.506;10.272;2022-08-19T11:58:53;3.03;;;2.60;;
50281;SDS011;36176;51.506;10.272;2022-08-19T12:01:24;2.72;;;1.75;;
50281;SDS011;36176;51.506;10.272;2022-08-19T12:03:53;2.00;;;1.80;;
50281;SDS011;36176;51.506;10.272;2022-08-19T12:06:27;2.78;;;2.00;;
50281;SDS011;36176;51.506;10.272;2022-08-19T12:08:59;3.60;;;2.00;;
50281;SDS011;36176;51.506;10.272;2022-08-19T12:11:31;2.00;;;1.80;;
50281;SDS011;36176;51.506;10.272;2022-08-19T12:14:19;3.25;;;1.73;;
50281;SDS011;36176;51.506;10.272;2022-08-19T12:17:08;3.33;;;1.73;;
50281;SDS011;36176;51.506;10.272;2022-08-19T12:19:36;3.05;;;1.70;;
50281;SDS011;36176;51.506;10.272;2022-08-19T12:22:04;3.50;;;2.20;;
50281;SDS011;36176;51.506;10.272;2022-08-19T12:24:32;2.15;;;1.80;;
50281;SDS011;36176;51.506;10.272;2022-08-19T12:27:03;3.40;;;2.30;;
50281;SDS011;36176;51.506;10.272;2022-08-19T12:29:35;3.10;;;1.55;;
50281;SDS011;36176;51.506;10.272;2022-08-19T12:32:05;2.72;;;1.80;;
50281;SDS011;36176;51.506;10.272;2022-08-19T12:34:36;8.93;;;8.32;;
50281;SDS011;36176;51.506;10.272;2022-08-19T12:37:04;3.80;;;1.60;;
50281;SDS011;36176;51.506;10.272;2022-08-19T12:39:40;2.25;;;2.05;;
50281;SDS011;36176;51.506;10.272;2022-08-19T12:42:09;2.72;;;2.53;;
50281;SDS011;36176;51.506;10.272;2022-08-19T12:44:40;1.35;;;1.20;;
50281;SDS011;36176;51.506;10.272;2022-08-19T12:47:11;2.78;;;1.83;;
50281;SDS011;36176;51.506;10.272;2022-08-19T12:49:41;4.53;;;1.40;;
50281;SDS011;36176;51.506;10.272;2022-08-19T12:52:21;2.10;;;1.30;;
50281;SDS011;36176;51.506;10.272;2022-08-19T12:54:54;3.50;;;1.40;;
50281;SDS011;36176;51.506;10.272;2022-08-19T12:57:23;12.40;;;2.20;;
50281;SDS011;36176;51.506;10.272;2022-08-19T12:59:59;2.08;;;1.40;;
50281;SDS011;36176;51.506;10.272;2022-08-19T13:02:31;3.97;;;1.48;;
50281;SDS011;36176;51.506;10.272;2022-08-19T13:05:08;1.60;;;1.50;;
50281;SDS011;36176;51.506;10.272;2022-08-19T13:07:38;1.90;;;1.70;;
50281;SDS011;36176;51.506;10.272;2022-08-19T13:10:07;3.05;;;1.95;;
50281;SDS011;36176;51.506;10.272;2022-08-19T13:12:36;1.63;;;1.35;;
50281;SDS011;36176;51.506;10.272;2022-08-19T13:15:03;4.95;;;3.22;;
50281;SDS011;36176;51.506;10.272;2022-08-19T13:17:37;2.35;;;1.30;;
50281;SDS011;36176;51.506;10.272;2022-08-19T13:20:06;3.15;;;1.20;;
50281;SDS011;36176;51.506;10.272;2022-08-19T13:22:37;2.42;;;1.50;;
50281;SDS011;36176;51.506;10.272;2022-08-19T13:25:06;3.22;;;1.65;;
50281;SDS011;36176;51.506;10.272;2022-08-19T13:27:36;1.30;;;1.20;;
50281;SDS011;36176;51.506;10.272;2022-08-19T13:30:05;2.67;;;1.10;;
50281;SDS011;36176;51.506;10.272;2022-08-19T13:32:53;1.40;;;1.30;;
50281;SDS011;36176;51.506;10.272;2022-08-19T13:35:58;2.72;;;1.15;;
50281;SDS011;36176;51.506;10.272;2022-08-19T13:38:28;1.40;;;1.30;;
50281;SDS011;36176;51.506;10.272;2022-08-19T13:40:57;2.78;;;2.00;;
50281;SDS011;36176;51.506;10.272;2022-08-19T13:43:39;3.28;;;1.40;;
50281;SDS011;36176;51.506;10.272;2022-08-19T13:46:10;2.03;;;1.38;;
50281;SDS011;36176;51.506;10.272;2022-08-19T13:48:40;4.30;;;3.85;;
50281;SDS011;36176;51.506;10.272;2022-08-19T13:51:08;2.58;;;2.38;;
50281;SDS011;36176;51.506;10.272;2022-08-19T13:53:37;1.70;;;1.60;;
50281;SDS011;36176;51.506;10.272;2022-08-19T13:56:09;5.18;;;4.68;;
50281;SDS011;36176;51.506;10.272;2022-08-19T13:58:38;4.47;;;3.80;;
50281;SDS011;36176;51.506;10.272;2022-08-19T14:01:06;2.45;;;1.35;;
50281;SDS011;36176;51.506;10.272;2022-08-19T14:03:35;1.80;;;1.52;;
50281;SDS011;36176;51.506;10.272;2022-08-19T14:06:03;1.52;;;1.20;;
50281;SDS011;36176;51.506;10.272;2022-08-19T14:08:30;2.42;;;2.22;;
50281;SDS011;36176;51.506;10.272;2022-08-19T14:10:59;3.47;;;1.30;;
50281;SDS011;36176;51.506;10.272;2022-08-19T14:13:32;1.40;;;1.30;;
50281;SDS011;36176;51.506;10.272;2022-08-19T14:16:00;1.98;;;1.27;;
50281;SDS011;36176;51.506;10.272;2022-08-19T14:18:29;1.70;;;1.20;;
50281;SDS011;36176;51.506;10.272;2022-08-19T14:20:56;2.10;;;1.27;;
50281;SDS011;36176;51.506;10.272;2022-08-19T14:23:27;3.53;;;1.17;;
50281;SDS011;36176;51.506;10.272;2022-08-19T14:26:02;2.05;;;1.30;;
50281;SDS011;36176;51.506;10.272;2022-08-19T14:28:34;3.05;;;1.20;;
50281;SDS011;36176;51.506;10.272;2022-08-19T14:31:01;1.10;;;1.10;;
50281;SDS011;36176;51.506;10.272;2022-08-19T14:33:32;1.50;;;1.27;;
50281;SDS011;36176;51.506;10.272;2022-08-19T14:35:59;1.83;;;1.20;;
50281;SDS011;36176;51.506;10.272;2022-08-19T14:38:28;1.58;;;1.40;;
50281;SDS011;36176;51.506;10.272;2022-08-19T14:41:08;2.08;;;1.67;;
50281;SDS011;36176;51.506;10.272;2022-08-19T14:43:44;2.53;;;1.30;;
50281;SDS011;36176;51.506;10.272;2022-08-19T14:46:17;1.70;;;1.35;;
50281;SDS011;36176;51.506;10.272;2022-08-19T14:48:51;2.78;;;1.30;;
50281;SDS011;36176;51.506;10.272;2022-08-19T14:51:19;2.30;;;1.50;;
50281;SDS011;36176;51.506;10.272;2022-08-19T14:53:47;1.95;;;1.20;;
50281;SDS011;36176;51.506;10.272;2022-08-19T14:56:16;2.60;;;2.17;;
50281;SDS011;36176;51.506;10.272;2022-08-19T14:58:46;1.20;;;1.08;;
50281;SDS011;36176;51.506;10.272;2022-08-19T15:01:15;1.58;;;1.27;;
50281;SDS011;36176;51.506;10.272;2022-08-19T15:03:44;1.23;;;1.20;;
50281;SDS011;36176;51.506;10.272;2022-08-19T15:06:11;1.90;;;1.52;;
50281;SDS011;36176;51.506;10.272;2022-08-19T15:08:40;1.85;;;1.20;;
50281;SDS011;36176;51.506;10.272;2022-08-19T15:11:10;1.20;;;1.10;;
50281;SDS011;36176;51.506;10.272;2022-08-19T15:13:43;1.15;;;1.02;;
50281;SDS011;36176;51.506;10.272;2022-08-19T15:16:13;1.20;;;1.00;;
50281;SDS011;36176;51.506;10.272;2022-08-19T15:18:44;4.75;;;3.65;;
50281;SDS011;36176;51.506;10.272;2022-08-19T15:21:16;2.08;;;1.40;;
50281;SDS011;36176;51.506;10.272;2022-08-19T15:23:54;2.67;;;1.42;;
50281;SDS011;36176;51.506;10.272;2022-08-19T15:26:23;1.30;;;1.20;;
50281;SDS011;36176;51.506;10.272;2022-08-19T15:28:54;2.83;;;1.80;;
50281;SDS011;36176;51.506;10.272;2022-08-19T15:31:21;1.38;;;1.25;;
50281;SDS011;36176;51.506;10.272;2022-08-19T15:33:57;1.80;;;1.70;;
50281;SDS011;36176;51.506;10.272;2022-08-19T15:36:25;3.05;;;1.55;;
50281;SDS011;36176;51.506;10.272;2022-08-19T15:38:56;4.00;;;2.10;;
50281;SDS011;36176;51.506;10.272;2022-08-19T15:41:26;2.28;;;1.70;;
50281;SDS011;36176;51.506;10.272;2022-08-19T15:47:50;3.38;;;1.65;;
50281;SDS011;36176;51.506;10.272;2022-08-19T15:50:18;2.45;;;1.50;;
50281;SDS011;36176;51.506;10.272;2022-08-19T15:52:50;4.38;;;1.80;;
50281;SDS011;36176;51.506;10.272;2022-08-19T15:55:21;2.40;;;2.30;;
50281;SDS011;36176;51.506;10.272;2022-08-19T15:58:03;3.05;;;1.60;;
50281;SDS011;36176;51.506;10.272;2022-08-19T16:00:59;2.45;;;1.67;;
50281;SDS011;36176;51.506;10.272;2022-08-19T16:03:50;2.78;;;2.58;;
50281;SDS011;36176;51.506;10.272;2022-08-19T16:06:43;1.50;;;1.40;;
50281;SDS011;36176;51.506;10.272;2022-08-19T16:09:23;1.70;;;1.58;;
50281;SDS011;36176;51.506;10.272;2022-08-19T16:11:55;2.35;;;1.70;;
50281;SDS011;36176;51.506;10.272;2022-08-19T16:14:45;2.63;;;1.83;;
50281;SDS011;36176;51.506;10.272;2022-08-19T16:17:14;2.17;;;1.98;;
50281;SDS011;36176;51.506;10.272;2022-08-19T16:20:02;2.08;;;1.40;;
50281;SDS011;36176;51.506;10.272;2022-08-19T16:22:31;5.18;;;1.70;;
50281;SDS011;36176;51.506;10.272;2022-08-19T16:24:59;3.60;;;1.75;;
50281;SDS011;36176;51.506;10.272;2022-08-19T16:27:27;2.33;;;2.15;;
50281;SDS011;36176;51.506;10.272;2022-08-19T16:29:57;3.08;;;2.88;;
50281;SDS011;36176;51.506;10.272;2022-08-19T16:32:31;4.88;;;2.70;;
50281;SDS011;36176;51.506;10.272;2022-08-19T16:35:01;2.63;;;1.60;;
50281;SDS011;36176;51.506;10.272;2022-08-19T16:37:38;3.53;;;1.30;;
50281;SDS011;36176;51.506;10.272;2022-08-19T16:40:47;2.42;;;1.45;;
50281;SDS011;36176;51.506;10.272;2022-08-19T16:43:20;1.83;;;1.30;;
50281;SDS011;36176;51.506;10.272;2022-08-19T16:45:48;6.53;;;5.78;;
50281;SDS011;36176;51.506;10.272;2022-08-19T16:48:19;5.82;;;1.77;;
50281;SDS011;36176;51.506;10.272;2022-08-19T16:53:44;2.60;;;2.05;;